Time;durP1;ratioP1;P1;durP2;ratioP2;P2;SDS_P1;SDS_P2;PMS_P1;PMS_P2;Temp;Humidity;BMP_temperature;BMP_pressure;BME280_temperature;BME280_humidity;BME280_pressure;Samples;Min_cycle;Max_cycle;Signal;HPM_P1;HPM_P2
2022/09/03 00:01:27;;;;;;;2.58;2.13;;;17.00;91.70;;;;;;5014924;28;20318;-76
2022/09/03 00:03:59;;;;;;;2.65;2.25;;;16.90;92.00;;;;;;5008035;28;20233;-77
2022/09/03 00:06:32;;;;;;;2.95;1.92;;;16.80;92.30;;;;;;5022830;28;20206;-77
2022/09/03 00:09:05;;;;;;;5.10;1.60;;;16.70;92.60;;;;;;5016921;28;20213;-77
2022/09/03 00:11:40;;;;;;;3.08;1.98;;;16.70;92.80;;;;;;5013723;28;20229;-76
2022/09/03 00:14:12;;;;;;;5.18;1.63;;;16.60;93.00;;;;;;5010193;28;20234;-79
2022/09/03 00:16:48;;;;;;;3.47;1.98;;;16.60;93.20;;;;;;5015088;28;20202;-78
2022/09/03 00:19:19;;;;;;;2.10;1.80;;;16.50;93.30;;;;;;5015170;28;20221;-77
2022/09/03 00:21:49;;;;;;;5.03;2.10;;;16.50;93.50;;;;;;5010220;28;21184;-77
2022/09/03 00:24:21;;;;;;;2.35;2.03;;;16.40;93.60;;;;;;5013396;28;20254;-77
2022/09/03 00:26:53;;;;;;;2.80;1.60;;;16.40;93.90;;;;;;5006750;28;20219;-79
2022/09/03 00:29:25;;;;;;;5.75;1.98;;;16.40;93.90;;;;;;5011404;28;20214;-78
2022/09/03 00:31:58;;;;;;;3.00;2.08;;;16.30;94.00;;;;;;5013541;28;20227;-77
2022/09/03 00:34:30;;;;;;;5.90;2.10;;;16.30;94.10;;;;;;5013773;28;20264;-77
2022/09/03 00:36:57;;;;;;;2.15;1.75;;;16.30;94.30;;;;;;5014206;28;20197;-77
2022/09/03 00:39:28;;;;;;;1.45;1.33;;;16.20;94.40;;;;;;5013619;28;20574;-78
2022/09/03 00:42:10;;;;;;;6.50;2.25;;;16.10;94.50;;;;;;5015357;28;20218;-77
2022/09/03 00:44:59;;;;;;;3.72;1.63;;;16.10;94.70;;;;;;5015298;28;20268;-76
2022/09/03 00:47:34;;;;;;;2.80;1.95;;;16.10;94.70;;;;;;5018775;28;20205;-79
2022/09/03 00:50:09;;;;;;;2.60;1.60;;;15.90;94.70;;;;;;5015178;28;20231;-77
2022/09/03 00:52:46;;;;;;;5.22;1.50;;;15.90;94.70;;;;;;5016396;28;20254;-78
2022/09/03 00:55:27;;;;;;;3.15;1.80;;;16.00;94.80;;;;;;5018190;28;20227;-76
2022/09/03 00:58:14;;;;;;;1.98;1.42;;;16.00;95.20;;;;;;5031929;28;20216;-77
2022/09/03 01:00:43;;;;;;;4.82;1.52;;;15.90;95.00;;;;;;5018067;28;20244;-77
2022/09/03 01:03:19;;;;;;;3.35;2.35;;;15.90;95.10;;;;;;5019737;28;20243;-77
2022/09/03 01:06:02;;;;;;;2.40;1.63;;;15.90;95.10;;;;;;5015391;28;20196;-77
2022/09/03 01:08:58;;;;;;;2.88;2.15;;;15.90;95.10;;;;;;5029217;28;20207;-77
2022/09/03 01:11:39;;;;;;;5.90;1.70;;;15.90;95.10;;;;;;5027352;28;20209;-77
2022/09/03 01:14:16;;;;;;;2.47;1.80;;;15.90;95.30;;;;;;5015099;28;20256;-78
2022/09/03 01:16:49;;;;;;;3.15;1.42;;;15.90;95.30;;;;;;5033410;28;20285;-77
2022/09/03 01:19:40;;;;;;;3.58;1.60;;;15.90;95.30;;;;;;5018196;28;20287;-79
2022/09/03 01:22:30;;;;;;;2.78;1.30;;;15.80;95.40;;;;;;5020794;28;20232;-77
2022/09/03 01:25:16;;;;;;;2.30;1.73;;;15.80;95.60;;;;;;5031377;28;20288;-76
2022/09/03 01:27:51;;;;;;;2.20;1.40;;;15.80;95.60;;;;;;5017348;28;20351;-77
2022/09/03 01:30:22;;;;;;;1.63;1.40;;;15.70;95.70;;;;;;5017154;28;20247;-79
2022/09/03 01:32:58;;;;;;;4.63;1.88;;;15.70;95.80;;;;;;5015286;28;20570;-79
2022/09/03 01:35:34;;;;;;;3.15;2.10;;;15.70;96.00;;;;;;5017072;28;20283;-79
2022/09/03 01:38:14;;;;;;;3.95;1.70;;;15.60;95.90;;;;;;5016838;28;20193;-77
2022/09/03 01:40:52;;;;;;;4.15;1.65;;;15.60;96.00;;;;;;5015951;28;20668;-77
2022/09/03 01:43:37;;;;;;;2.22;1.50;;;15.60;96.10;;;;;;5008195;28;20225;-77
2022/09/03 01:46:12;;;;;;;2.33;1.60;;;15.60;96.10;;;;;;5015946;28;20220;-77
2022/09/03 01:48:49;;;;;;;1.92;1.73;;;15.50;96.20;;;;;;5014936;28;20683;-78
2022/09/03 01:51:21;;;;;;;3.38;1.98;;;15.50;96.30;;;;;;5011498;28;20215;-77
2022/09/03 01:54:23;;;;;;;3.10;1.92;;;15.50;96.30;;;;;;5014040;28;20221;-77
2022/09/03 01:57:14;;;;;;;1.90;1.40;;;15.50;96.30;;;;;;5004091;28;20207;-78
2022/09/03 01:59:48;;;;;;;1.85;1.58;;;15.50;96.40;;;;;;5014776;28;20193;-77
2022/09/03 02:02:22;;;;;;;2.00;1.55;;;15.40;96.50;;;;;;5012709;28;20314;-75
2022/09/03 02:04:59;;;;;;;2.50;1.80;;;15.40;96.60;;;;;;5019605;28;20232;-78
2022/09/03 02:07:40;;;;;;;2.00;1.60;;;15.40;96.70;;;;;;5020442;28;20228;-78
2022/09/03 02:10:11;;;;;;;1.83;1.73;;;15.30;96.80;;;;;;5016387;28;20315;-75
2022/09/03 02:12:41;;;;;;;1.52;1.35;;;15.30;96.90;;;;;;5015708;28;20201;-78
2022/09/03 02:15:14;;;;;;;1.63;1.40;;;15.30;96.90;;;;;;5015974;28;20271;-77
2022/09/03 02:17:45;;;;;;;4.20;1.90;;;15.30;97.10;;;;;;5016361;28;20661;-79
2022/09/03 02:20:19;;;;;;;2.00;1.80;;;15.30;97.20;;;;;;5014572;28;20206;-77
2022/09/03 02:22:48;;;;;;;2.10;1.60;;;15.30;97.30;;;;;;5026536;28;20214;-76
2022/09/03 02:25:17;;;;;;;2.88;1.73;;;15.10;97.80;;;;;;5035472;28;20210;-77
2022/09/03 02:27:45;;;;;;;5.85;1.98;;;15.20;97.60;;;;;;5017574;28;20198;-76
2022/09/03 02:30:12;;;;;;;6.28;1.88;;;15.10;97.60;;;;;;5017891;28;20311;-76
2022/09/03 02:32:39;;;;;;;2.58;2.13;;;15.10;97.70;;;;;;5010085;28;20287;-77
2022/09/03 02:35:09;;;;;;;2.88;1.95;;;15.10;97.80;;;;;;5014504;28;20233;-76
2022/09/03 02:37:37;;;;;;;2.47;1.65;;;15.10;97.90;;;;;;5013806;28;20201;-76
2022/09/03 02:40:08;;;;;;;4.75;1.50;;;15.00;98.00;;;;;;5024687;28;20236;-76
2022/09/03 02:42:36;;;;;;;7.68;1.90;;;15.00;98.10;;;;;;5020133;28;20224;-76
2022/09/03 02:45:13;;;;;;;1.83;1.48;;;15.00;98.30;;;;;;5022274;28;20283;-76
2022/09/03 02:47:44;;;;;;;3.22;2.00;;;15.00;98.40;;;;;;5025156;28;20203;-75
2022/09/03 02:50:17;;;;;;;2.28;1.70;;;14.90;98.50;;;;;;5023506;28;20224;-76
2022/09/03 02:52:44;;;;;;;2.45;1.70;;;14.90;98.50;;;;;;5022439;28;20196;-76
2022/09/03 02:55:11;;;;;;;2.70;1.70;;;14.90;98.60;;;;;;5015625;28;20255;-76
2022/09/03 02:57:38;;;;;;;2.50;2.20;;;14.90;98.70;;;;;;5016327;28;20670;-74
2022/09/03 03:00:07;;;;;;;3.65;1.70;;;14.90;98.60;;;;;;5010135;28;20193;-77
2022/09/03 03:02:34;;;;;;;2.72;1.67;;;14.90;98.70;;;;;;5015829;28;20216;-77
2022/09/03 03:05:01;;;;;;;6.93;1.85;;;14.80;98.70;;;;;;5016828;28;20647;-76
2022/09/03 03:07:32;;;;;;;2.03;1.85;;;14.80;98.80;;;;;;5026733;28;20260;-76
2022/09/03 03:09:59;;;;;;;2.33;2.13;;;14.80;98.80;;;;;;5030704;28;20208;-74
2022/09/03 03:12:26;;;;;;;3.90;2.35;;;14.80;98.80;;;;;;5016251;28;20197;-77
2022/09/03 03:14:53;;;;;;;3.53;1.95;;;14.70;98.90;;;;;;5015733;28;20300;-75
2022/09/03 03:17:20;;;;;;;4.95;1.70;;;14.70;99.00;;;;;;5016902;28;20193;-77
2022/09/03 03:19:48;;;;;;;2.30;2.00;;;14.70;99.00;;;;;;5008957;28;20266;-75
2022/09/03 03:22:15;;;;;;;3.13;1.90;;;14.70;99.20;;;;;;5014082;28;20205;-75
2022/09/03 03:24:43;;;;;;;7.10;2.60;;;14.70;99.30;;;;;;5013302;28;20283;-76
2022/09/03 03:27:12;;;;;;;3.15;1.70;;;14.70;99.10;;;;;;5011845;28;20205;-78
2022/09/03 03:29:39;;;;;;;3.95;1.73;;;14.70;99.20;;;;;;5012160;28;20210;-75
2022/09/03 03:32:07;;;;;;;2.72;1.83;;;14.80;99.50;;;;;;5020367;28;20289;-75
2022/09/03 03:34:34;;;;;;;4.05;1.85;;;14.70;99.10;;;;;;5014695;28;20223;-75
2022/09/03 03:37:01;;;;;;;3.50;2.00;;;14.70;99.30;;;;;;5003624;28;20208;-74
2022/09/03 03:39:27;;;;;;;2.55;1.90;;;14.70;99.30;;;;;;5011596;28;20220;-75
2022/09/03 03:41:56;;;;;;;3.35;1.80;;;14.70;99.20;;;;;;5013855;28;20296;-77
2022/09/03 03:44:23;;;;;;;2.40;2.20;;;14.60;99.30;;;;;;5006831;28;20575;-76
2022/09/03 03:46:50;;;;;;;5.70;2.05;;;14.60;99.30;;;;;;5013246;28;20200;-74
2022/09/03 03:49:17;;;;;;;3.08;2.05;;;14.60;99.40;;;;;;5017463;28;20232;-76
2022/09/03 03:51:44;;;;;;;2.25;1.55;;;14.60;99.40;;;;;;5015534;28;20205;-76
2022/09/03 03:54:11;;;;;;;2.55;1.75;;;14.60;99.50;;;;;;5013778;28;20258;-78
2022/09/03 03:56:38;;;;;;;3.92;2.10;;;14.60;99.60;;;;;;5018676;28;20205;-80
2022/09/03 03:59:07;;;;;;;3.22;2.00;;;14.60;99.70;;;;;;5018627;28;20259;-79
2022/09/03 04:01:34;;;;;;;2.97;1.75;;;14.50;99.60;;;;;;5016365;28;20217;-77
2022/09/03 04:04:02;;;;;;;2.00;1.70;;;14.50;99.60;;;;;;5018012;28;20228;-77
2022/09/03 04:06:29;;;;;;;2.30;1.80;;;14.50;99.60;;;;;;5018840;28;20209;-78
2022/09/03 04:08:56;;;;;;;3.25;1.85;;;14.50;99.60;;;;;;5021116;28;20288;-78
2022/09/03 04:11:25;;;;;;;2.42;2.20;;;14.50;99.70;;;;;;5014336;28;20263;-74
2022/09/03 04:13:58;;;;;;;2.65;1.80;;;14.50;99.70;;;;;;5014352;28;20616;-76
2022/09/03 04:16:28;;;;;;;5.07;2.50;;;14.50;99.80;;;;;;5013750;28;20633;-75
2022/09/03 04:18:56;;;;;;;5.78;4.18;;;14.40;99.90;;;;;;5010002;28;20219;-77
2022/09/03 04:21:25;;;;;;;2.38;2.08;;;14.40;99.90;;;;;;5013696;28;20201;-77
2022/09/03 04:23:54;;;;;;;2.60;1.80;;;14.40;99.90;;;;;;5015810;28;20225;-78
2022/09/03 04:26:24;;;;;;;3.20;1.90;;;14.30;99.90;;;;;;5021134;28;20197;-76
2022/09/03 04:28:52;;;;;;;2.65;1.75;;;14.30;99.90;;;;;;5014705;28;20255;-77
2022/09/03 04:31:21;;;;;;;2.40;1.67;;;14.30;99.90;;;;;;5014043;28;20251;-77
2022/09/03 04:33:50;;;;;;;3.50;2.30;;;14.30;99.90;;;;;;5014010;28;20228;-76
2022/09/03 04:36:19;;;;;;;2.55;1.92;;;14.30;99.90;;;;;;5018278;28;20676;-76
2022/09/03 04:38:48;;;;;;;3.03;2.10;;;14.30;99.90;;;;;;5011282;28;20197;-74
2022/09/03 04:41:17;;;;;;;2.75;2.03;;;14.30;99.90;;;;;;5011606;28;20209;-75
2022/09/03 04:43:45;;;;;;;3.38;2.05;;;14.30;99.90;;;;;;5012630;28;20224;-75
2022/09/03 04:46:13;;;;;;;5.00;2.47;;;14.30;99.90;;;;;;5030510;28;20208;-75
2022/09/03 04:48:42;;;;;;;4.07;2.05;;;14.30;99.90;;;;;;5015769;28;20237;-75
2022/09/03 04:51:12;;;;;;;3.10;2.08;;;14.30;99.90;;;;;;5014501;28;20272;-75
2022/09/03 04:53:48;;;;;;;2.45;1.80;;;14.30;99.90;;;;;;5001459;28;20591;-76
2022/09/03 04:56:18;;;;;;;2.80;2.03;;;14.30;99.90;;;;;;5014587;28;20654;-75
2022/09/03 04:58:47;;;;;;;3.15;1.80;;;14.30;99.90;;;;;;5012759;28;20220;-75
2022/09/03 05:01:17;;;;;;;5.00;2.05;;;14.30;99.90;;;;;;5015306;28;20267;-75
2022/09/03 05:03:46;;;;;;;2.88;1.90;;;14.30;99.90;;;;;;5020137;28;20308;-75
2022/09/03 05:06:21;;;;;;;2.40;2.15;;;14.30;99.90;;;;;;5039995;28;20206;-76
2022/09/03 05:08:49;;;;;;;2.15;1.95;;;14.30;99.90;;;;;;5024074;28;20219;-76
2022/09/03 05:11:17;;;;;;;4.72;1.80;;;14.40;99.90;;;;;;5019234;28;20205;-77
2022/09/03 05:13:46;;;;;;;2.47;1.90;;;14.40;99.90;;;;;;5018064;28;20224;-75
2022/09/03 05:16:14;;;;;;;2.60;1.90;;;14.50;99.90;;;;;;5019672;28;20260;-77
2022/09/03 05:18:41;;;;;;;4.13;1.90;;;14.50;99.90;;;;;;5025596;28;20196;-77
2022/09/03 05:21:09;;;;;;;5.82;1.90;;;14.60;99.80;;;;;;5016967;28;20208;-78
2022/09/03 05:23:39;;;;;;;4.82;1.65;;;14.70;99.60;;;;;;5022590;28;20315;-75
2022/09/03 05:26:09;;;;;;;2.53;1.60;;;14.70;99.40;;;;;;5030271;28;20328;-77
2022/09/03 05:28:37;;;;;;;2.50;1.83;;;14.80;99.20;;;;;;5018915;28;20240;-74
2022/09/03 05:31:06;;;;;;;3.55;1.95;;;14.90;99.00;;;;;;5010525;28;20613;-75
2022/09/03 05:33:34;;;;;;;3.42;2.00;;;15.00;98.60;;;;;;5015202;28;20304;-76
2022/09/03 05:36:02;;;;;;;3.03;1.83;;;15.20;98.40;;;;;;5017652;28;20193;-74
2022/09/03 05:38:29;;;;;;;2.15;1.55;;;15.40;98.00;;;;;;5016405;28;20538;-75
2022/09/03 05:41:00;;;;;;;3.30;1.90;;;15.80;96.90;;;;;;5015908;28;20247;-76
2022/09/03 05:43:27;;;;;;;2.75;1.60;;;16.10;96.10;;;;;;5017962;28;20230;-75
2022/09/03 05:45:59;;;;;;;2.03;1.50;;;16.30;95.60;;;;;;5012386;28;20384;-76
2022/09/03 05:48:26;;;;;;;3.00;2.00;;;16.40;95.10;;;;;;5013732;28;20214;-76
2022/09/03 05:51:00;;;;;;;50.45;15.77;;;16.40;94.80;;;;;;5010538;28;20211;-76
2022/09/03 05:53:27;;;;;;;3.53;2.40;;;16.60;95.00;;;;;;5008058;28;20223;-76
2022/09/03 05:56:05;;;;;;;3.30;2.30;;;17.40;94.20;;;;;;5014225;28;20994;-75
2022/09/03 05:58:34;;;;;;;8.87;3.33;;;18.50;92.30;;;;;;5013552;28;20440;-77
2022/09/03 06:01:09;;;;;;;3.17;1.53;;;19.10;90.50;;;;;;5001527;28;20860;-74
2022/09/03 06:03:37;;;;;;;4.70;1.93;;;19.10;90.00;;;;;;5006305;28;21052;-76
2022/09/03 06:06:05;;;;;;;3.43;1.97;;;19.50;88.40;;;;;;5016417;28;20506;-71
2022/09/03 06:08:33;;;;;;;2.37;1.50;;;20.20;87.00;;;;;;5012724;28;20543;-78
2022/09/03 06:11:03;;;;;;;4.03;1.70;;;20.50;85.30;;;;;;5019172;28;20949;-75
2022/09/03 06:13:31;;;;;;;1.97;1.30;;;21.30;83.40;;;;;;5012502;28;20463;-74
2022/09/03 06:15:58;;;;;;;3.13;1.40;;;22.20;80.80;;;;;;5014827;28;20444;-74
2022/09/03 06:18:26;;;;;;;8.60;2.00;;;23.00;78.40;;;;;;5006812;28;20945;-74
2022/09/03 06:20:57;;;;;;;2.00;1.40;;;23.60;75.90;;;;;;5013893;28;20536;-74
2022/09/03 06:23:24;;;;;;;2.10;1.50;;;24.30;73.00;;;;;;5007163;28;20516;-73
2022/09/03 06:26:02;;;;;;;3.90;1.60;;;24.70;71.90;;;;;;5015080;28;20538;-74
2022/09/03 06:28:30;;;;;;;2.03;1.20;;;25.20;70.20;;;;;;5014238;28;20844;-71
2022/09/03 06:30:58;;;;;;;2.50;1.43;;;25.70;68.50;;;;;;5020294;28;20464;-73
2022/09/03 06:33:25;;;;;;;3.77;1.43;;;26.10;67.10;;;;;;5022624;28;20874;-74
2022/09/03 06:35:56;;;;;;;3.13;1.70;;;26.40;65.60;;;;;;5014877;28;20446;-73
2022/09/03 06:38:24;;;;;;;3.40;1.80;;;26.60;64.90;;;;;;5015133;28;20470;-75
2022/09/03 06:40:55;;;;;;;2.00;1.30;;;27.10;63.40;;;;;;5014932;28;20448;-73
2022/09/03 06:43:25;;;;;;;4.40;1.80;;;27.60;62.10;;;;;;5022159;28;20514;-76
2022/09/03 06:45:57;;;;;;;5.47;1.30;;;27.80;60.60;;;;;;5012091;28;20452;-73
2022/09/03 06:48:24;;;;;;;2.60;1.67;;;27.80;59.70;;;;;;5011017;28;20447;-75
2022/09/03 06:50:57;;;;;;;2.50;1.10;;;28.00;59.60;;;;;;5010112;28;20475;-76
2022/09/03 06:53:29;;;;;;;3.00;1.20;;;27.60;59.40;;;;;;5012469;28;20555;-71
2022/09/03 06:55:57;;;;;;;3.50;1.57;;;26.70;60.60;;;;;;5019552;28;20455;-72
2022/09/03 06:58:29;;;;;;;2.37;1.47;;;26.60;61.00;;;;;;5021633;28;20443;-73
2022/09/03 07:01:01;;;;;;;1.70;1.40;;;26.60;61.60;;;;;;5026450;28;20871;-71
2022/09/03 07:03:35;;;;;;;3.60;3.20;;;27.10;60.20;;;;;;5021579;28;20516;-72
2022/09/03 07:06:05;;;;;;;2.60;1.50;;;27.30;60.00;;;;;;5015936;28;20502;-75
2022/09/03 07:08:33;;;;;;;2.23;1.53;;;27.40;59.10;;;;;;5013176;28;20502;-77
2022/09/03 07:11:00;;;;;;;2.53;1.40;;;27.70;59.30;;;;;;5007292;28;20456;-74
2022/09/03 07:13:28;;;;;;;1.90;1.33;;;27.80;58.10;;;;;;5004394;28;20465;-75
2022/09/03 07:16:00;;;;;;;2.27;1.60;;;27.80;58.30;;;;;;5011589;28;20475;-75
2022/09/03 07:18:27;;;;;;;2.67;2.00;;;28.30;57.50;;;;;;5013669;28;20452;-76
2022/09/03 07:20:59;;;;;;;1.20;0.90;;;28.40;57.00;;;;;;5016502;28;20991;-78
2022/09/03 07:23:26;;;;;;;2.43;1.70;;;28.80;56.80;;;;;;5013028;28;20495;-78
2022/09/03 07:25:55;;;;;;;3.07;1.67;;;28.70;56.40;;;;;;5025780;28;20448;-78
2022/09/03 07:28:23;;;;;;;3.37;1.70;;;28.70;56.10;;;;;;5014503;28;20531;-76
2022/09/03 07:30:52;;;;;;;5.10;1.67;;;28.40;56.30;;;;;;5005830;28;20456;-77
2022/09/03 07:33:19;;;;;;;1.37;0.90;;;27.50;57.00;;;;;;5029059;28;20526;-71
2022/09/03 07:35:48;;;;;;;2.03;1.20;;;26.90;58.40;;;;;;5016671;28;20540;-75
2022/09/03 07:38:18;;;;;;;2.27;1.30;;;26.70;59.20;;;;;;5011855;28;20476;-76
2022/09/03 07:40:46;;;;;;;5.13;1.53;;;27.20;58.60;;;;;;5014727;28;20475;-77
2022/09/03 07:43:13;;;;;;;2.17;1.57;;;27.80;57.70;;;;;;5018786;28;20544;-78
2022/09/03 07:45:40;;;;;;;3.37;1.60;;;28.50;56.80;;;;;;5018991;28;20515;-78
2022/09/03 07:48:08;;;;;;;2.50;1.20;;;29.30;55.90;;;;;;5019527;28;20506;-82
2022/09/03 07:50:50;;;;;;;6.13;1.50;;;29.70;54.20;;;;;;5023094;28;20484;-78
2022/09/03 07:53:19;;;;;;;2.37;1.67;;;30.00;53.80;;;;;;5023984;28;20546;-80
2022/09/03 07:55:53;;;;;;;3.30;1.33;;;30.50;54.30;;;;;;5018840;28;20490;-70
2022/09/03 07:58:21;;;;;;;2.67;1.20;;;29.90;52.70;;;;;;5020057;28;20532;-75
2022/09/03 08:00:48;;;;;;;6.33;1.50;;;28.50;54.40;;;;;;5014265;28;20527;-74
2022/09/03 08:03:18;;;;;;;3.73;1.37;;;27.60;56.00;;;;;;5052791;22;20504;-82
2022/09/03 08:05:45;;;;;;;2.40;1.43;;;27.00;57.10;;;;;;5061974;28;20517;-83
2022/09/03 08:08:13;;;;;;;2.53;1.40;;;27.10;57.20;;;;;;5043795;28;20475;-84
2022/09/03 08:10:41;;;;;;;1.70;1.30;;;27.90;56.70;;;;;;5041442;28;20456;-83
2022/09/03 08:13:09;;;;;;;2.80;1.47;;;28.70;55.40;;;;;;5040485;28;20542;-83
2022/09/03 08:15:39;;;;;;;4.50;1.50;;;29.20;54.10;;;;;;5040398;28;20451;-84
2022/09/03 08:18:06;;;;;;;3.30;1.70;;;29.30;53.90;;;;;;5041548;28;20474;-82
2022/09/03 08:20:34;;;;;;;5.77;1.87;;;29.60;53.20;;;;;;5039047;28;20527;-83
2022/09/03 08:23:08;;;;;;;2.53;1.53;;;29.50;52.90;;;;;;5040778;28;20443;-84
2022/09/03 08:25:35;;;;;;;4.60;1.97;;;29.30;52.90;;;;;;5042929;28;20518;-84
2022/09/03 08:28:02;;;;;;;2.40;0.97;;;29.40;53.00;;;;;;5046364;28;20455;-83
2022/09/03 08:30:29;;;;;;;3.10;1.37;;;29.50;53.10;;;;;;5046360;28;20544;-85
2022/09/03 08:32:56;;;;;;;1.70;1.40;;;29.50;52.80;;;;;;5042998;28;20447;-83
2022/09/03 08:35:23;;;;;;;4.00;1.37;;;29.80;52.40;;;;;;5038934;28;20455;-84
2022/09/03 08:37:52;;;;;;;3.00;1.20;;;30.30;52.20;;;;;;5041148;28;20471;-84
2022/09/03 08:40:23;;;;;;;2.17;1.80;;;30.80;51.20;;;;;;5037675;28;20523;-83
2022/09/03 08:43:02;;;;;;;2.10;1.30;;;31.30;50.50;;;;;;5043157;28;20469;-83
2022/09/03 08:45:30;;;;;;;1.90;1.27;;;31.50;49.30;;;;;;5043778;28;20492;-83
2022/09/03 08:48:05;;;;;;;2.10;1.90;;;31.40;49.30;;;;;;5043432;28;20470;-83
2022/09/03 08:50:38;;;;;;;3.60;1.67;;;31.20;49.70;;;;;;5042259;28;20523;-83
2022/09/03 08:53:15;;;;;;;5.27;1.67;;;31.70;49.20;;;;;;5040398;28;20443;-83
2022/09/03 08:55:50;;;;;;;1.90;1.33;;;31.90;48.70;;;;;;5039892;28;20454;-85
2022/09/03 08:58:18;;;;;;;5.93;2.23;;;32.30;47.70;;;;;;5041147;28;20529;-83
2022/09/03 09:01:00;;;;;;;3.93;1.57;;;32.80;47.50;;;;;;5043466;28;20443;-83
2022/09/03 09:03:42;;;;;;;1.70;1.57;;;33.10;46.70;;;;;;5046314;28;20473;-84
2022/09/03 09:06:19;;;;;;;3.57;1.37;;;33.20;46.10;;;;;;5041420;28;20479;-83
2022/09/03 09:08:57;;;;;;;3.77;1.77;;;32.80;45.90;;;;;;5043725;28;20499;-83
2022/09/03 09:11:31;;;;;;;2.70;1.67;;;33.00;45.60;;;;;;5043079;28;20578;-84
2022/09/03 09:14:03;;;;;;;2.73;1.50;;;32.60;45.50;;;;;;5044219;28;20553;-84
2022/09/03 09:16:40;;;;;;;10.43;1.90;;;32.40;45.60;;;;;;5041642;28;20601;-85
2022/09/03 09:19:26;;;;;;;2.30;1.17;;;31.90;45.40;;;;;;5044270;28;20454;-84
2022/09/03 09:21:58;;;;;;;5.30;1.20;;;31.80;46.30;;;;;;5042821;28;20443;-84
2022/09/03 09:24:33;;;;;;;3.03;1.40;;;31.70;46.20;;;;;;5041665;28;20541;-85
2022/09/03 09:27:04;;;;;;;2.10;1.30;;;31.20;46.70;;;;;;5042022;28;20475;-83
2022/09/03 09:29:35;;;;;;;2.47;1.73;;;30.50;46.90;;;;;;5041470;28;20451;-83
2022/09/03 09:32:03;;;;;;;2.30;1.57;;;30.80;47.20;;;;;;5042973;28;20469;-83
2022/09/03 09:34:35;;;;;;;2.10;1.17;;;31.00;47.20;;;;;;5041575;28;20438;-86
2022/09/03 09:37:08;;;;;;;2.83;1.30;;;31.40;47.00;;;;;;5042315;28;20462;-85
2022/09/03 09:39:36;;;;;;;2.07;1.40;;;31.30;46.70;;;;;;5049875;28;20450;-84
2022/09/03 09:42:08;;;;;;;2.30;1.50;;;31.00;47.00;;;;;;5053469;28;20451;-84
2022/09/03 09:44:36;;;;;;;3.33;1.30;;;30.80;46.70;;;;;;5051904;28;20529;-83
2022/09/03 09:47:07;;;;;;;3.73;1.60;;;30.10;47.20;;;;;;5052783;28;20463;-84
2022/09/03 09:49:37;;;;;;;2.50;1.60;;;29.30;48.50;;;;;;5043516;28;20458;-84
2022/09/03 09:52:10;;;;;;;1.60;1.20;;;29.10;48.70;;;;;;5045941;28;20443;-84
2022/09/03 09:54:40;;;;;;;12.23;2.00;;;29.10;49.40;;;;;;5045027;28;20489;-84
2022/09/03 09:57:17;;;;;;;2.80;1.53;;;28.90;49.00;;;;;;5034760;28;20528;-83
2022/09/03 09:59:44;;;;;;;2.90;2.10;;;28.60;49.10;;;;;;5028292;28;20436;-82
2022/09/03 10:02:14;;;;;;;2.10;1.50;;;28.50;48.90;;;;;;5022775;28;20512;-83
2022/09/03 10:04:42;;;;;;;3.30;1.60;;;28.50;49.20;;;;;;5016854;28;20472;-84
2022/09/03 10:07:24;;;;;;;1.90;1.50;;;28.50;49.60;;;;;;5021493;28;20461;-85
2022/09/03 10:10:05;;;;;;;3.83;1.40;;;28.30;50.30;;;;;;5016288;28;20475;-84
2022/09/03 10:12:37;;;;;;;2.10;1.90;;;28.40;50.10;;;;;;5012112;28;20453;-84
2022/09/03 10:15:23;;;;;;;7.53;1.47;;;28.10;49.20;;;;;;5009353;28;20504;-84
2022/09/03 10:17:57;;;;;;;5.63;1.50;;;27.80;49.30;;;;;;5011425;28;20480;-85
2022/09/03 10:20:35;;;;;;;3.93;1.30;;;27.30;49.80;;;;;;5018270;28;20452;-83
2022/09/03 10:23:11;;;;;;;2.63;1.10;;;27.30;49.80;;;;;;5017576;28;20512;-84
2022/09/03 10:25:55;;;;;;;2.00;1.07;;;27.70;49.90;;;;;;5027362;28;20502;-85
2022/09/03 10:28:27;;;;;;;4.43;1.47;;;27.80;49.00;;;;;;5014513;28;20519;-84
2022/09/03 10:31:30;;;;;;;4.40;1.33;;;27.40;49.80;;;;;;5013535;28;20437;-83
2022/09/03 10:34:01;;;;;;;5.03;1.40;;;27.20;49.90;;;;;;5013873;28;20453;-83
2022/09/03 10:36:34;;;;;;;5.30;1.40;;;27.00;50.20;;;;;;5017374;28;20441;-84
2022/09/03 10:39:06;;;;;;;2.57;1.47;;;26.40;50.40;;;;;;5012669;28;20428;-84
2022/09/03 10:41:47;;;;;;;1.80;1.10;;;25.90;51.20;;;;;;5020770;28;20479;-85
2022/09/03 10:44:34;;;;;;;3.23;1.30;;;25.80;51.40;;;;;;5030368;28;20449;-84
2022/09/03 10:47:17;;;;;;;5.23;3.23;;;25.70;51.90;;;;;;5021785;28;20801;-84
2022/09/03 10:49:51;;;;;;;4.10;1.23;;;25.30;52.10;;;;;;5013293;28;20483;-82
2022/09/03 10:52:27;;;;;;;6.67;3.80;;;25.20;52.70;;;;;;5017682;28;20454;-83
2022/09/03 10:55:15;;;;;;;3.70;1.40;;;25.20;53.40;;;;;;5026892;28;20471;-83
2022/09/03 10:57:49;;;;;;;4.13;1.80;;;25.30;53.30;;;;;;5018227;28;20526;-84
2022/09/03 11:00:18;;;;;;;2.30;1.40;;;25.50;53.30;;;;;;5027947;28;20536;-85
2022/09/03 11:03:17;;;;;;;2.77;1.53;;;25.50;52.80;;;;;;5013649;28;20464;-84
2022/09/03 11:05:56;;;;;;;3.20;1.23;;;25.60;52.80;;;;;;5002479;28;20532;-84
2022/09/03 11:08:29;;;;;;;2.47;1.70;;;25.70;53.10;;;;;;5020339;28;20485;-84
2022/09/03 11:11:05;;;;;;;3.70;1.23;;;25.70;52.70;;;;;;5020214;28;20820;-85
2022/09/03 11:13:39;;;;;;;2.50;1.30;;;25.50;52.80;;;;;;5024672;28;20475;-84
2022/09/03 11:16:11;;;;;;;1.47;1.20;;;25.40;52.80;;;;;;5011998;28;20498;-83
2022/09/03 11:18:44;;;;;;;7.43;2.83;;;25.30;53.20;;;;;;5018370;28;20469;-85
2022/09/03 11:21:14;;;;;;;2.17;1.43;;;25.10;53.30;;;;;;5011245;28;20441;-85
2022/09/03 11:23:44;;;;;;;2.53;1.50;;;25.00;53.60;;;;;;5015084;28;20543;-85
2022/09/03 11:26:15;;;;;;;2.70;1.43;;;24.80;54.00;;;;;;5015012;28;20518;-82
2022/09/03 11:28:51;;;;;;;2.90;1.47;;;24.80;54.20;;;;;;5023200;28;20521;-83
2022/09/03 11:31:26;;;;;;;6.70;1.30;;;25.00;54.00;;;;;;5018741;28;20491;-83
2022/09/03 11:33:58;;;;;;;2.83;1.33;;;24.70;54.00;;;;;;5029493;28;20467;-83
2022/09/03 11:36:31;;;;;;;1.67;1.10;;;24.70;53.90;;;;;;5024598;28;20445;-82
2022/09/03 11:38:59;;;;;;;4.77;1.60;;;24.70;54.00;;;;;;5018135;28;20432;-84
2022/09/03 11:41:28;;;;;;;2.10;1.07;;;24.60;53.90;;;;;;5027191;28;20464;-83
2022/09/03 11:43:56;;;;;;;4.63;1.57;;;24.50;54.00;;;;;;5026414;28;20474;-83
2022/09/03 11:46:30;;;;;;;2.03;1.20;;;24.50;54.20;;;;;;5020783;28;20520;-83
2022/09/03 11:49:10;;;;;;;2.60;0.90;;;24.60;54.10;;;;;;5031260;28;20444;-83
2022/09/03 11:51:40;;;;;;;1.93;1.10;;;24.60;54.10;;;;;;5022036;28;20499;-85
2022/09/03 11:54:25;;;;;;;5.07;1.40;;;24.80;54.00;;;;;;5021842;28;20456;-85
2022/09/03 11:57:05;;;;;;;2.33;1.20;;;25.00;53.80;;;;;;5013760;28;20461;-87
2022/09/03 11:59:33;;;;;;;1.90;1.63;;;25.10;53.60;;;;;;5012683;28;20443;-84
2022/09/03 12:02:05;;;;;;;3.20;1.40;;;25.10;53.30;;;;;;5013518;28;20512;-84
2022/09/03 12:04:40;;;;;;;5.90;1.90;;;25.00;53.50;;;;;;5013267;28;20543;-84
2022/09/03 12:07:39;;;;;;;2.47;1.57;;;25.10;53.40;;;;;;5009603;28;20462;-85
2022/09/03 12:10:31;;;;;;;2.13;1.60;;;25.00;53.90;;;;;;5009706;28;20447;-83
2022/09/03 12:13:09;;;;;;;3.27;1.37;;;25.10;54.10;;;;;;5013092;28;20456;-83
2022/09/03 12:16:16;;;;;;;3.33;1.13;;;25.10;53.20;;;;;;5023216;28;20432;-84
2022/09/03 12:18:44;;;;;;;1.97;1.17;;;24.70;54.00;;;;;;4985957;28;20450;-83
2022/09/03 12:21:13;;;;;;;3.00;1.20;;;24.80;54.30;;;;;;5017586;28;20464;-82
2022/09/03 12:23:43;;;;;;;3.73;1.30;;;24.60;54.00;;;;;;5012559;28;20449;-82
2022/09/03 12:26:13;;;;;;;2.83;1.50;;;24.50;54.60;;;;;;5018562;28;20529;-83
2022/09/03 12:28:42;;;;;;;3.00;1.30;;;24.40;54.80;;;;;;5017384;28;20444;-84
2022/09/03 12:31:21;;;;;;;6.17;2.40;;;24.50;55.10;;;;;;5019825;28;20433;-84
2022/09/03 12:33:50;;;;;;;3.20;1.30;;;24.60;54.50;;;;;;5033115;28;20433;-84
2022/09/03 12:36:17;;;;;;;1.77;1.13;;;24.60;54.30;;;;;;5031695;28;20507;-83
2022/09/03 12:38:46;;;;;;;2.60;1.50;;;24.30;54.60;;;;;;5026106;28;20540;-83
2022/09/03 12:41:25;;;;;;;3.10;1.30;;;24.20;54.80;;;;;;5017912;28;20512;-83
2022/09/03 12:43:54;;;;;;;3.17;1.67;;;24.40;55.10;;;;;;5017508;28;20455;-83
2022/09/03 12:46:25;;;;;;;3.17;1.17;;;24.60;54.70;;;;;;5017785;28;20508;-83
2022/09/03 12:49:02;;;;;;;2.60;1.43;;;24.70;54.70;;;;;;5018623;28;20493;-84
2022/09/03 12:51:41;;;;;;;5.17;1.50;;;24.80;54.70;;;;;;5023535;28;20443;-84
2022/09/03 12:54:14;;;;;;;4.70;1.30;;;24.80;54.60;;;;;;5012748;28;20459;-86
2022/09/03 12:56:42;;;;;;;3.80;1.90;;;25.00;54.90;;;;;;5011703;28;20520;-85
2022/09/03 12:59:13;;;;;;;3.37;2.00;;;24.90;54.40;;;;;;5013199;28;20441;-82
2022/09/03 13:01:46;;;;;;;1.97;1.53;;;24.90;55.20;;;;;;5016398;28;20467;-86
2022/09/03 13:04:17;;;;;;;2.87;1.50;;;25.10;54.80;;;;;;5021838;28;20538;-86
2022/09/03 13:06:50;;;;;;;2.20;1.20;;;25.20;54.50;;;;;;5014437;28;20515;-87
2022/09/03 13:09:22;;;;;;;2.10;1.70;;;25.30;54.40;;;;;;5011334;28;20470;-84
2022/09/03 13:11:51;;;;;;;2.67;1.60;;;25.40;54.30;;;;;;5021762;28;20520;-87